Time;durP1;ratioP1;P1;durP2;ratioP2;P2;SDS_P1;SDS_P2;PMS_P1;PMS_P2;Temp;Humidity;BMP_temperature;BMP_pressure;BME280_temperature;BME280_humidity;BME280_pressure;Samples;Min_cycle;Max_cycle;Signal;HPM_P1;HPM_P2
2022/06/30 00:01:42;;;;;;;8.98;5.13;;;22.60;66.10;;;;;;5011066;28;20029;-76
2022/06/30 00:04:07;;;;;;;7.55;5.18;;;22.60;65.60;;;;;;5012791;28;20046;-78
2022/06/30 00:06:33;;;;;;;7.32;5.50;;;22.60;65.70;;;;;;5008255;28;20030;-77
2022/06/30 00:08:59;;;;;;;9.80;6.70;;;22.50;65.80;;;;;;4994020;28;20037;-78
2022/06/30 00:11:24;;;;;;;7.93;6.22;;;22.50;66.00;;;;;;5001768;28;20424;-78
2022/06/30 00:13:53;;;;;;;10.18;7.60;;;22.50;66.10;;;;;;4998818;28;20206;-78
2022/06/30 00:16:19;;;;;;;11.63;7.40;;;22.50;66.20;;;;;;4999338;28;20033;-78
2022/06/30 00:18:45;;;;;;;8.43;6.55;;;22.50;66.20;;;;;;5000303;28;20109;-78
2022/06/30 00:21:11;;;;;;;9.38;5.93;;;22.50;66.30;;;;;;4997256;28;20994;-78
2022/06/30 00:23:38;;;;;;;9.70;6.40;;;22.50;66.40;;;;;;5003963;28;20022;-78
2022/06/30 00:26:04;;;;;;;11.50;7.05;;;22.50;66.40;;;;;;5010297;28;20034;-78
2022/06/30 00:28:30;;;;;;;9.32;7.07;;;22.50;66.30;;;;;;5011877;28;20377;-79
2022/06/30 00:30:56;;;;;;;11.23;7.35;;;22.40;66.20;;;;;;5010836;28;20480;-78
2022/06/30 00:33:22;;;;;;;10.18;6.75;;;22.40;66.50;;;;;;5001139;28;20056;-77
2022/06/30 00:35:48;;;;;;;10.52;6.18;;;22.40;66.50;;;;;;5011934;28;20026;-79
2022/06/30 00:38:14;;;;;;;8.95;6.82;;;22.40;66.30;;;;;;5001699;28;20019;-78
2022/06/30 00:40:45;;;;;;;8.27;6.18;;;22.40;66.40;;;;;;4991978;28;20029;-78
2022/06/30 00:43:11;;;;;;;;;;;22.40;66.60;;;;;;5004905;28;20026;-79
2022/06/30 00:45:47;;;;;;;10.32;7.60;;;22.40;66.60;;;;;;4993262;28;19929;-78
2022/06/30 00:48:17;;;;;;;9.90;7.05;;;22.40;66.80;;;;;;5015086;28;20037;-78
2022/06/30 00:50:43;;;;;;;8.43;6.53;;;22.40;66.80;;;;;;5011802;28;20030;-78
2022/06/30 00:53:10;;;;;;;10.98;7.30;;;22.40;66.80;;;;;;5002466;28;20568;-77
2022/06/30 00:55:36;;;;;;;10.63;7.55;;;22.40;67.20;;;;;;4992446;28;20469;-78
2022/06/30 00:58:05;;;;;;;8.82;7.93;;;22.30;67.20;;;;;;5004073;28;20018;-79
2022/06/30 01:00:36;;;;;;;10.10;7.40;;;22.30;67.30;;;;;;4996366;28;20057;-78
2022/06/30 01:03:03;;;;;;;10.57;8.77;;;22.30;67.30;;;;;;4999041;28;20104;-77
2022/06/30 01:05:29;;;;;;;13.25;8.25;;;22.30;67.40;;;;;;4996882;28;20023;-77
2022/06/30 01:07:56;;;;;;;10.90;8.77;;;22.30;67.40;;;;;;4996539;28;20030;-78
2022/06/30 01:13:07;;;;;;;9.63;8.18;;;22.30;67.60;;;;;;4997266;28;20099;-78
2022/06/30 01:15:33;;;;;;;11.73;9.85;;;22.30;67.80;;;;;;4999749;28;20076;-78
2022/06/30 01:17:58;;;;;;;14.38;9.38;;;22.30;68.10;;;;;;4994319;28;20829;-77
2022/06/30 01:20:29;;;;;;;11.38;8.13;;;22.30;68.10;;;;;;5003007;28;20034;-78
2022/06/30 01:22:57;;;;;;;11.52;7.88;;;22.20;68.10;;;;;;4993409;28;20052;-78
2022/06/30 01:25:24;;;;;;;9.77;8.23;;;22.30;68.10;;;;;;5003182;28;20022;-77
2022/06/30 01:27:53;;;;;;;10.80;8.38;;;22.30;68.20;;;;;;4991923;28;20157;-77
2022/06/30 01:30:20;;;;;;;8.50;7.00;;;22.20;68.20;;;;;;5000892;28;20026;-76
2022/06/30 01:32:45;;;;;;;9.48;8.18;;;22.20;68.30;;;;;;5011193;28;20049;-78
2022/06/30 01:35:11;;;;;;;11.93;9.50;;;22.20;68.40;;;;;;4998381;28;20060;-76
2022/06/30 01:37:50;;;;;;;11.15;8.93;;;22.20;68.60;;;;;;5007947;28;20031;-78
2022/06/30 01:40:16;;;;;;;11.95;8.55;;;22.20;68.60;;;;;;5003721;28;20022;-78
2022/06/30 01:42:42;;;;;;;12.77;8.73;;;22.20;68.80;;;;;;4992008;28;20389;-77
2022/06/30 01:45:08;;;;;;;13.57;10.10;;;22.20;68.70;;;;;;4995806;28;20034;-78
2022/06/30 01:47:35;;;;;;;11.55;9.40;;;22.20;69.00;;;;;;5011104;28;20045;-78
2022/06/30 01:50:06;;;;;;;12.00;10.65;;;22.10;69.00;;;;;;4998518;28;20023;-78
2022/06/30 01:52:31;;;;;;;10.68;8.95;;;22.10;69.40;;;;;;5005406;28;20029;-79
2022/06/30 01:54:57;;;;;;;10.43;9.32;;;22.10;69.20;;;;;;4995315;28;20030;-78
2022/06/30 01:57:23;;;;;;;10.32;9.15;;;22.10;69.60;;;;;;5006560;28;20022;-77
2022/06/30 01:59:48;;;;;;;11.15;8.63;;;22.10;69.90;;;;;;5006275;28;20410;-77
2022/06/30 02:02:14;;;;;;;11.68;9.68;;;22.10;69.90;;;;;;4997711;28;20027;-77
2022/06/30 02:04:51;;;;;;;10.73;9.18;;;22.10;69.90;;;;;;4994311;28;20416;-78
2022/06/30 02:07:18;;;;;;;11.70;9.38;;;22.00;70.20;;;;;;5002878;28;20036;-79
2022/06/30 02:09:44;;;;;;;10.70;8.55;;;22.00;70.20;;;;;;5009162;28;20469;-78
2022/06/30 02:14:56;;;;;;;10.52;9.38;;;21.90;70.60;;;;;;5005730;28;20033;-77
2022/06/30 02:17:22;;;;;;;12.77;11.00;;;21.90;70.80;;;;;;4998955;28;20497;-76
2022/06/30 02:19:47;;;;;;;14.90;10.85;;;21.90;71.00;;;;;;4992827;28;20046;-77
2022/06/30 02:22:13;;;;;;;13.13;9.60;;;21.80;71.10;;;;;;4999413;28;20032;-78
2022/06/30 02:24:39;;;;;;;11.48;10.23;;;21.80;71.30;;;;;;5008968;28;20069;-79
2022/06/30 02:27:05;;;;;;;11.10;9.95;;;21.80;71.40;;;;;;5005927;28;20046;-78
2022/06/30 02:29:30;;;;;;;11.88;10.45;;;21.80;71.40;;;;;;5010509;28;20128;-79
2022/06/30 02:31:56;;;;;;;14.15;10.52;;;21.80;71.50;;;;;;4997683;28;20129;-78
2022/06/30 02:34:28;;;;;;;12.45;10.40;;;21.80;71.70;;;;;;5010297;28;20062;-78
2022/06/30 02:36:55;;;;;;;13.10;11.20;;;21.70;71.50;;;;;;4997809;28;20041;-77
2022/06/30 02:39:21;;;;;;;14.35;11.05;;;21.70;71.80;;;;;;4995601;28;20030;-77
2022/06/30 02:41:47;;;;;;;13.95;11.00;;;21.70;71.90;;;;;;5005449;28;20029;-78
2022/06/30 02:44:13;;;;;;;12.30;10.23;;;21.70;72.10;;;;;;4994906;28;20064;-78
2022/06/30 02:46:38;;;;;;;12.00;10.77;;;21.70;72.40;;;;;;4998626;28;20018;-78
2022/06/30 02:49:04;;;;;;;13.88;11.88;;;21.60;72.60;;;;;;5010371;28;20030;-78
2022/06/30 02:51:31;;;;;;;13.05;10.93;;;21.60;72.90;;;;;;5004445;28;20027;-78
2022/06/30 02:53:56;;;;;;;15.13;12.02;;;21.60;73.10;;;;;;5002444;28;20021;-77
2022/06/30 02:56:22;;;;;;;13.65;12.23;;;21.60;73.10;;;;;;5008468;28;20565;-77
2022/06/30 02:58:49;;;;;;;13.00;11.65;;;21.60;73.30;;;;;;4999427;28;20035;-78
2022/06/30 03:01:15;;;;;;;13.77;11.70;;;21.50;73.40;;;;;;4996159;28;20022;-78
2022/06/30 03:03:41;;;;;;;16.55;12.82;;;21.50;73.30;;;;;;5003750;28;20050;-78
2022/06/30 03:06:06;;;;;;;13.63;12.23;;;21.50;73.50;;;;;;4991709;28;20041;-77
2022/06/30 03:08:33;;;;;;;14.63;13.02;;;21.40;73.60;;;;;;4999700;28;20342;-78
2022/06/30 03:10:59;;;;;;;15.25;12.98;;;21.40;73.50;;;;;;5010287;28;20532;-79
2022/06/30 03:13:25;;;;;;;14.75;13.15;;;21.40;73.90;;;;;;4997527;28;20022;-78
2022/06/30 03:15:51;;;;;;;16.27;13.32;;;21.40;74.00;;;;;;5009943;28;20056;-77
2022/06/30 03:18:17;;;;;;;15.02;12.55;;;21.40;74.00;;;;;;4997560;28;20405;-77
2022/06/30 03:20:42;;;;;;;14.85;13.18;;;21.40;74.20;;;;;;5010535;28;20026;-77
2022/06/30 03:23:08;;;;;;;14.65;13.13;;;21.40;74.40;;;;;;5006317;28;20058;-78
2022/06/30 03:25:34;;;;;;;16.15;12.90;;;21.40;74.50;;;;;;4996347;28;20023;-77
2022/06/30 03:27:59;;;;;;;18.92;13.38;;;21.30;74.20;;;;;;5008356;28;20030;-77
2022/06/30 03:30:26;;;;;;;14.77;13.05;;;21.30;74.50;;;;;;5020025;28;20179;-77
2022/06/30 03:32:52;;;;;;;14.15;12.65;;;21.30;74.60;;;;;;5018506;28;20026;-77
2022/06/30 03:35:18;;;;;;;16.60;14.77;;;21.30;74.90;;;;;;5010361;28;20022;-77
2022/06/30 03:37:44;;;;;;;15.18;13.23;;;21.20;74.90;;;;;;5015829;28;20032;-78
2022/06/30 03:40:10;;;;;;;15.38;13.70;;;21.20;75.40;;;;;;5004969;28;20076;-78
2022/06/30 03:42:36;;;;;;;15.98;14.25;;;21.10;75.50;;;;;;4997283;28;20049;-78
2022/06/30 03:45:03;;;;;;;16.58;14.88;;;21.20;75.60;;;;;;5004759;28;20059;-79
2022/06/30 03:47:29;;;;;;;16.27;14.60;;;21.10;75.70;;;;;;4994680;28;20045;-77
2022/06/30 03:49:55;;;;;;;16.40;14.40;;;21.10;75.90;;;;;;5007958;28;20022;-78
2022/06/30 03:52:20;;;;;;;16.10;14.30;;;21.10;76.00;;;;;;4993894;28;20168;-78
2022/06/30 03:54:47;;;;;;;17.05;15.18;;;21.10;76.10;;;;;;5009566;28;20448;-77
2022/06/30 03:57:13;;;;;;;16.63;14.73;;;21.10;76.30;;;;;;4994418;28;20469;-79
2022/06/30 03:59:39;;;;;;;16.60;14.90;;;21.10;76.30;;;;;;4999713;28;20029;-77
2022/06/30 04:02:05;;;;;;;20.65;16.90;;;21.10;76.60;;;;;;5015536;28;20029;-78
2022/06/30 04:04:31;;;;;;;19.25;15.65;;;21.10;76.60;;;;;;5012870;28;20392;-78
2022/06/30 04:06:56;;;;;;;19.83;16.40;;;21.20;77.40;;;;;;4996251;28;20057;-78
2022/06/30 04:09:22;;;;;;;17.83;15.82;;;21.20;76.80;;;;;;5002111;28;20034;-79
2022/06/30 04:11:48;;;;;;;20.23;16.67;;;21.20;76.70;;;;;;4998517;28;20030;-78
2022/06/30 04:14:13;;;;;;;18.15;16.30;;;21.20;77.60;;;;;;4998134;28;20022;-78
2022/06/30 04:16:39;;;;;;;18.65;16.75;;;21.20;77.00;;;;;;5000743;28;20022;-78
2022/06/30 04:19:05;;;;;;;20.02;17.38;;;21.20;76.90;;;;;;4994920;28;20101;-79
2022/06/30 04:21:30;;;;;;;18.48;16.67;;;21.20;76.80;;;;;;5003165;28;20153;-79
2022/06/30 04:23:56;;;;;;;18.67;16.33;;;21.30;77.00;;;;;;4996478;28;20022;-78
2022/06/30 04:26:22;;;;;;;21.35;16.40;;;21.30;76.90;;;;;;5001174;28;20022;-78
2022/06/30 04:28:47;;;;;;;18.92;16.92;;;21.30;76.90;;;;;;5012196;28;20092;-77
2022/06/30 04:33:57;;;;;;;20.58;17.27;;;21.30;76.80;;;;;;4993758;28;20042;-80
2022/06/30 04:36:23;;;;;;;17.75;15.93;;;21.30;76.80;;;;;;5003401;28;20022;-77
2022/06/30 04:38:48;;;;;;;19.15;17.08;;;21.40;77.00;;;;;;5005978;28;20053;-79
2022/06/30 04:41:23;;;;;;;21.10;18.80;;;21.40;77.10;;;;;;4999469;28;20023;-79
2022/06/30 04:43:49;;;;;;;20.85;17.55;;;21.40;77.00;;;;;;5010953;28;20022;-79
2022/06/30 04:46:14;;;;;;;20.02;18.00;;;21.40;76.70;;;;;;4999383;28;20492;-79
2022/06/30 04:48:43;;;;;;;21.95;18.50;;;21.50;76.80;;;;;;5011966;28;20114;-78
2022/06/30 04:51:08;;;;;;;19.20;17.20;;;21.50;77.10;;;;;;5006678;28;20068;-78
2022/06/30 04:53:34;;;;;;;19.08;17.08;;;21.50;76.90;;;;;;5003257;28;20025;-79
2022/06/30 04:56:00;;;;;;;19.88;17.88;;;21.60;76.90;;;;;;5001836;28;20440;-76
2022/06/30 04:58:26;;;;;;;18.45;16.55;;;21.60;76.80;;;;;;5007179;28;20400;-78
2022/06/30 05:00:51;;;;;;;18.63;16.73;;;21.70;76.60;;;;;;5005968;28;20026;-77
2022/06/30 05:03:17;;;;;;;18.80;16.13;;;21.70;76.40;;;;;;5004802;28;20137;-79
2022/06/30 05:05:43;;;;;;;18.30;16.35;;;21.70;76.40;;;;;;5009166;28;20053;-77
2022/06/30 05:08:08;;;;;;;20.85;18.45;;;21.80;76.20;;;;;;5001874;28;20022;-79
2022/06/30 05:10:34;;;;;;;19.65;17.52;;;21.80;76.30;;;;;;5008605;28;20129;-78
2022/06/30 05:13:00;;;;;;;21.77;19.48;;;21.90;76.30;;;;;;5000415;28;20022;-78
2022/06/30 05:15:25;;;;;;;20.67;18.42;;;22.00;76.40;;;;;;5010490;28;20567;-78
2022/06/30 05:17:51;;;;;;;16.88;15.07;;;22.00;76.10;;;;;;5006146;28;20106;-79
2022/06/30 05:20:17;;;;;;;18.17;15.07;;;22.10;75.70;;;;;;5010748;28;20030;-79
2022/06/30 05:22:42;;;;;;;18.98;16.88;;;22.20;75.00;;;;;;4998810;28;20120;-78
2022/06/30 05:27:53;;;;;;;17.00;15.18;;;22.30;74.60;;;;;;4998194;28;20153;-79
2022/06/30 05:30:18;;;;;;;21.15;18.38;;;22.40;74.50;;;;;;5009604;28;20495;-79
2022/06/30 05:32:45;;;;;;;23.60;21.17;;;22.40;74.70;;;;;;4996777;28;20061;-80
2022/06/30 05:35:11;;;;;;;26.98;22.60;;;22.50;74.40;;;;;;5009326;28;20112;-80
2022/06/30 05:37:37;;;;;;;24.42;21.80;;;22.50;74.00;;;;;;5002140;28;20022;-80
2022/06/30 05:40:03;;;;;;;20.33;18.30;;;22.60;73.90;;;;;;4991508;28;20092;-80
2022/06/30 05:42:29;;;;;;;24.05;21.38;;;22.60;73.80;;;;;;4997124;28;20050;-79
2022/06/30 05:44:55;;;;;;;18.60;16.58;;;22.60;73.20;;;;;;4993752;28;20049;-79
2022/06/30 05:47:20;;;;;;;21.48;18.52;;;22.70;73.10;;;;;;4999072;28;20037;-79
2022/06/30 05:49:46;;;;;;;22.90;19.95;;;22.60;72.60;;;;;;4996818;28;20041;-80
2022/06/30 05:52:12;;;;;;;20.95;18.70;;;22.70;73.10;;;;;;4992569;28;20030;-80
2022/06/30 05:54:37;;;;;;;19.00;17.05;;;22.80;73.60;;;;;;5012058;28;20034;-80
2022/06/30 05:57:03;;;;;;;17.98;15.68;;;22.90;73.40;;;;;;5010521;28;20026;-81
2022/06/30 05:59:32;;;;;;;20.42;18.33;;;23.00;72.40;;;;;;5002732;28;20469;-79
2022/06/30 06:01:59;;;;;;;25.58;22.80;;;23.00;73.10;;;;;;5000115;28;20073;-78
2022/06/30 06:04:24;;;;;;;24.15;21.60;;;23.10;73.60;;;;;;4999112;28;20038;-78
2022/06/30 06:06:50;;;;;;;17.45;14.05;;;23.10;73.00;;;;;;4997491;28;20042;-80
2022/06/30 06:09:16;;;;;;;20.70;16.70;;;23.20;71.00;;;;;;4994397;28;20473;-78
2022/06/30 06:11:42;;;;;;;20.58;18.58;;;23.30;72.00;;;;;;4998193;28;20072;-79
2022/06/30 06:14:08;;;;;;;26.65;23.75;;;23.30;71.00;;;;;;4997726;28;20018;-78
2022/06/30 06:16:34;;;;;;;21.45;18.50;;;23.30;72.80;;;;;;4999397;28;20100;-78
2022/06/30 06:18:59;;;;;;;26.02;22.55;;;23.40;71.70;;;;;;4998871;28;20161;-79
2022/06/30 06:21:26;;;;;;;19.17;16.77;;;23.50;72.30;;;;;;5001494;28;20026;-76
2022/06/30 06:23:53;;;;;;;20.02;14.85;;;23.60;72.20;;;;;;5001028;28;20026;-79
2022/06/30 06:26:19;;;;;;;22.58;20.20;;;23.70;70.30;;;;;;5002822;28;20030;-80
2022/06/30 06:31:29;;;;;;;22.15;18.58;;;23.80;68.70;;;;;;5001841;28;20045;-78
2022/06/30 06:33:55;;;;;;;22.77;18.15;;;23.80;67.70;;;;;;5003978;28;20010;-78
2022/06/30 06:36:20;;;;;;;15.90;13.55;;;23.90;69.60;;;;;;5009893;28;20476;-78
2022/06/30 06:38:46;;;;;;;18.05;16.02;;;24.00;69.60;;;;;;4999842;28;20053;-79
2022/06/30 06:41:14;;;;;;;19.00;15.38;;;24.10;69.10;;;;;;4999298;28;20492;-77
2022/06/30 06:43:40;;;;;;;18.23;16.33;;;24.30;68.20;;;;;;5008621;28;20493;-78
2022/06/30 06:46:06;;;;;;;22.35;19.98;;;24.30;67.50;;;;;;4998578;28;20026;-78
2022/06/30 06:48:32;;;;;;;22.33;17.92;;;24.40;66.70;;;;;;5007325;28;20400;-78
2022/06/30 06:50:57;;;;;;;20.80;17.85;;;24.30;66.50;;;;;;4998421;28;20028;-78
2022/06/30 06:53:23;;;;;;;18.75;16.77;;;24.40;67.30;;;;;;5003121;28;20023;-78
2022/06/30 06:55:49;;;;;;;15.73;14.10;;;24.50;67.50;;;;;;5002015;28;20551;-78
2022/06/30 06:58:15;;;;;;;24.95;20.15;;;24.60;66.60;;;;;;4992741;28;20428;-79
2022/06/30 07:00:40;;;;;;;23.30;19.30;;;24.60;65.90;;;;;;5002660;28;20073;-79
2022/06/30 07:03:06;;;;;;;19.48;17.38;;;24.70;66.00;;;;;;4999183;28;20105;-77
2022/06/30 07:05:32;;;;;;;23.67;19.33;;;24.60;66.30;;;;;;4998632;28;20409;-76
2022/06/30 07:07:58;;;;;;;22.77;18.38;;;24.70;66.40;;;;;;4999544;28;20046;-78
2022/06/30 07:10:25;;;;;;;22.88;20.40;;;24.80;66.50;;;;;;4995540;28;20133;-77
2022/06/30 07:12:52;;;;;;;23.45;20.95;;;24.90;66.60;;;;;;4999286;28;20045;-78
2022/06/30 07:15:17;;;;;;;18.55;16.55;;;24.90;65.40;;;;;;4993803;28;20424;-77
2022/06/30 07:17:43;;;;;;;14.93;13.32;;;25.00;65.70;;;;;;4996531;28;20041;-80
2022/06/30 07:20:09;;;;;;;24.55;19.70;;;25.10;65.20;;;;;;4992366;28;20145;-78
2022/06/30 07:22:36;;;;;;;22.08;18.02;;;25.10;65.40;;;;;;4999866;28;20015;-77
2022/06/30 07:25:05;;;;;;;22.63;20.23;;;25.10;65.30;;;;;;4993107;28;20094;-77
2022/06/30 07:27:31;;;;;;;23.52;21.05;;;25.20;65.20;;;;;;4998012;28;20068;-78
2022/06/30 07:29:57;;;;;;;26.05;21.52;;;25.30;64.40;;;;;;5008035;28;20526;-78
2022/06/30 07:32:24;;;;;;;24.27;21.88;;;25.40;63.90;;;;;;4992268;28;20026;-79
2022/06/30 07:34:50;;;;;;;22.58;17.90;;;25.40;64.40;;;;;;5009504;28;20366;-76
2022/06/30 07:37:15;;;;;;;27.63;23.25;;;25.50;64.10;;;;;;4996833;28;20051;-78
2022/06/30 07:39:41;;;;;;;22.83;20.63;;;25.50;64.00;;;;;;4989236;28;20037;-78
2022/06/30 07:42:07;;;;;;;15.60;13.90;;;25.60;64.00;;;;;;5000902;28;20049;-78
2022/06/30 07:44:32;;;;;;;22.35;19.33;;;25.60;63.10;;;;;;4988700;28;20121;-79
2022/06/30 07:46:58;;;;;;;26.75;23.60;;;25.70;64.10;;;;;;4999245;28;20080;-77
2022/06/30 07:49:24;;;;;;;23.98;19.08;;;25.80;63.40;;;;;;4990888;28;20092;-77
2022/06/30 07:51:49;;;;;;;24.83;20.42;;;25.90;63.70;;;;;;4994042;28;20027;-78
2022/06/30 07:54:16;;;;;;;15.30;10.70;;;25.80;63.10;;;;;;4990421;28;20114;-79
2022/06/30 07:56:42;;;;;;;22.40;20.00;;;25.90;62.50;;;;;;4995075;28;20030;-78
2022/06/30 07:59:08;;;;;;;26.00;22.60;;;26.00;62.20;;;;;;4996704;28;20033;-77
2022/06/30 08:01:33;;;;;;;23.58;21.08;;;26.10;61.90;;;;;;5003899;28;20010;-77
2022/06/30 08:03:59;;;;;;;22.35;19.90;;;26.10;61.30;;;;;;4999321;28;20499;-79
2022/06/30 08:06:25;;;;;;;28.65;24.35;;;25.90;61.70;;;;;;5007089;28;20027;-77
2022/06/30 08:08:53;;;;;;;21.00;18.80;;;25.90;62.10;;;;;;4998100;28;20026;-78
2022/06/30 08:11:19;;;;;;;26.17;23.60;;;25.80;62.50;;;;;;5007685;28;20033;-78
2022/06/30 08:13:46;;;;;;;24.00;21.48;;;25.80;62.60;;;;;;5009636;28;20018;-78
2022/06/30 08:16:14;;;;;;;23.23;19.90;;;25.80;63.00;;;;;;5010811;28;20421;-78
2022/06/30 08:18:40;;;;;;;20.80;18.30;;;25.90;63.10;;;;;;5000161;28;20479;-79
2022/06/30 08:21:06;;;;;;;26.98;22.77;;;25.90;62.20;;;;;;5011948;28;20033;-77
2022/06/30 08:23:32;;;;;;;20.58;18.48;;;26.00;62.10;;;;;;5000056;28;20014;-77
2022/06/30 08:25:58;;;;;;;22.40;19.35;;;26.00;63.10;;;;;;5013422;28;20172;-78
2022/06/30 08:28:24;;;;;;;26.38;23.85;;;26.10;62.80;;;;;;5000422;28;20027;-79
2022/06/30 08:30:50;;;;;;;26.65;21.60;;;26.20;62.30;;;;;;5005195;28;20100;-76
2022/06/30 08:33:16;;;;;;;17.80;13.48;;;26.20;62.80;;;;;;5007889;28;20020;-77
2022/06/30 08:35:43;;;;;;;8.50;4.78;;;26.30;62.50;;;;;;4997139;28;20054;-76
2022/06/30 08:38:09;;;;;;;16.38;10.80;;;26.30;61.40;;;;;;5006291;28;20030;-76
2022/06/30 08:43:23;;;;;;;19.52;15.10;;;26.70;62.00;;;;;;4996691;28;20038;-78
2022/06/30 08:45:51;;;;;;;21.35;15.60;;;26.80;62.20;;;;;;5004971;28;20022;-77
2022/06/30 08:48:17;;;;;;;19.95;16.58;;;26.90;61.70;;;;;;5006393;28;20062;-79
2022/06/30 08:50:43;;;;;;;19.92;14.80;;;26.90;62.00;;;;;;5000458;28;20049;-78
2022/06/30 08:53:10;;;;;;;21.70;18.58;;;27.00;61.10;;;;;;5017831;28;20601;-77
2022/06/30 08:55:37;;;;;;;18.02;14.45;;;27.10;61.70;;;;;;4996532;28;20092;-78
2022/06/30 08:58:05;;;;;;;18.60;14.32;;;27.10;61.40;;;;;;4990913;28;20022;-79
2022/06/30 09:00:33;;;;;;;14.98;10.05;;;27.10;62.20;;;;;;5002713;28;20408;-77
2022/06/30 09:02:59;;;;;;;9.25;5.78;;;27.30;59.80;;;;;;4992390;28;20037;-79
2022/06/30 09:05:24;;;;;;;20.73;10.43;;;27.50;58.70;;;;;;5001770;28;20393;-77
2022/06/30 09:07:50;;;;;;;13.27;8.57;;;27.70;55.60;;;;;;4990926;28;20683;-77
2022/06/30 09:10:16;;;;;;;11.30;5.75;;;27.70;55.40;;;;;;5001110;28;20026;-78
2022/06/30 09:12:59;;;;;;;9.43;5.00;;;27.90;55.10;;;;;;4988355;28;20022;-78
2022/06/30 09:15:27;;;;;;;8.77;5.18;;;27.90;52.70;;;;;;5002794;28;20064;-77
2022/06/30 09:17:53;;;;;;;14.80;7.40;;;27.90;52.20;;;;;;4988325;28;20552;-76
2022/06/30 09:20:31;;;;;;;12.43;4.93;;;27.80;52.10;;;;;;4992831;28;20116;-77
2022/06/30 09:22:56;;;;;;;9.52;4.35;;;27.80;53.00;;;;;;4988512;28;20030;-78
2022/06/30 09:25:30;;;;;;;8.25;4.30;;;27.90;53.10;;;;;;5001374;28;20418;-78
2022/06/30 09:27:55;;;;;;;9.63;5.00;;;27.90;52.60;;;;;;5011094;28;20476;-78
2022/06/30 09:30:24;;;;;;;10.32;3.83;;;28.10;51.90;;;;;;5000856;28;20073;-77
2022/06/30 09:33:04;;;;;;;6.93;2.70;;;28.20;52.80;;;;;;5008699;28;20017;-78
2022/06/30 09:35:32;;;;;;;7.43;3.60;;;28.30;52.70;;;;;;5006179;28;20018;-79
2022/06/30 09:38:09;;;;;;;8.65;4.43;;;28.40;51.60;;;;;;4998443;28;20085;-78
2022/06/30 09:40:37;;;;;;;13.07;5.57;;;28.30;51.80;;;;;;5000106;28;20076;-78
2022/06/30 09:43:04;;;;;;;7.53;3.35;;;28.30;53.00;;;;;;5007409;28;20539;-77
2022/06/30 09:45:37;;;;;;;9.02;3.75;;;28.40;53.00;;;;;;5006785;28;20026;-77
2022/06/30 09:48:04;;;;;;;10.35;3.88;;;28.50;52.20;;;;;;4994918;28;20041;-77
2022/06/30 09:50:30;;;;;;;7.35;2.88;;;28.60;53.30;;;;;;4995173;28;20014;-78
2022/06/30 09:53:15;;;;;;;12.27;4.60;;;28.70;53.40;;;;;;4997442;28;20026;-77
2022/06/30 09:55:46;;;;;;;8.98;4.15;;;28.70;52.40;;;;;;4995639;28;20030;-77
2022/06/30 09:58:34;;;;;;;7.78;3.75;;;28.70;52.40;;;;;;5010660;28;20551;-79
2022/06/30 10:00:59;;;;;;;10.32;4.53;;;28.80;52.50;;;;;;5001127;28;20022;-79
2022/06/30 10:03:26;;;;;;;6.57;2.75;;;28.90;51.90;;;;;;5003100;28;20523;-78
2022/06/30 10:06:10;;;;;;;7.63;3.30;;;29.00;52.80;;;;;;5006016;28;20034;-78
2022/06/30 10:08:36;;;;;;;7.75;3.22;;;29.10;52.90;;;;;;5004780;28;20088;-77
2022/06/30 10:11:02;;;;;;;6.88;2.17;;;29.10;53.10;;;;;;5006174;28;20029;-77
2022/06/30 10:13:29;;;;;;;8.13;3.35;;;29.30;54.00;;;;;;5002245;28;20232;-76
2022/06/30 10:15:56;;;;;;;8.35;2.30;;;29.50;53.40;;;;;;5004413;28;20019;-77
2022/06/30 10:18:25;;;;;;;3.85;1.70;;;29.70;53.10;;;;;;5000064;28;20478;-77
2022/06/30 10:20:51;;;;;;;8.63;2.45;;;29.90;52.70;;;;;;5008580;28;20080;-77
2022/06/30 10:23:22;;;;;;;10.05;3.60;;;30.10;52.30;;;;;;4998567;28;20022;-75
2022/06/30 10:25:49;;;;;;;7.95;2.55;;;30.20;51.00;;;;;;5008692;28;20018;-78
2022/06/30 10:28:20;;;;;;;9.23;4.95;;;30.40;52.30;;;;;;5010128;28;20065;-76
2022/06/30 10:31:10;;;;;;;9.10;4.38;;;30.40;50.80;;;;;;5009679;28;20405;-78
2022/06/30 10:33:55;;;;;;;6.18;2.58;;;30.30;51.60;;;;;;5023355;28;20018;-77
2022/06/30 10:36:29;;;;;;;8.27;3.60;;;30.20;52.40;;;;;;5008359;28;20081;-77
2022/06/30 10:39:16;;;;;;;10.35;3.53;;;30.30;48.70;;;;;;4995235;28;20030;-77
2022/06/30 10:41:46;;;;;;;9.70;4.70;;;30.30;51.00;;;;;;4991708;28;20038;-77
2022/06/30 10:44:15;;;;;;;5.75;2.08;;;30.40;51.10;;;;;;4999369;28;20030;-77
2022/06/30 10:46:51;;;;;;;6.22;2.25;;;30.30;49.50;;;;;;5007991;28;20026;-79
2022/06/30 10:49:17;;;;;;;7.18;3.05;;;30.40;52.30;;;;;;4990801;28;20026;-76
2022/06/30 10:51:45;;;;;;;8.80;4.00;;;30.40;50.10;;;;;;4990727;28;20126;-78
2022/06/30 10:54:29;;;;;;;8.63;3.70;;;30.40;50.80;;;;;;5008132;28;20488;-78
2022/06/30 10:56:56;;;;;;;9.48;3.30;;;30.60;51.20;;;;;;5008914;28;20030;-77
2022/06/30 10:59:34;;;;;;;9.98;2.95;;;30.70;47.10;;;;;;4994316;28;20022;-78
2022/06/30 11:02:12;;;;;;;5.45;1.73;;;30.80;47.70;;;;;;4990365;28;20084;-78
2022/06/30 11:04:38;;;;;;;5.40;2.20;;;31.10;48.20;;;;;;4998360;28;20515;-79
2022/06/30 11:07:12;;;;;;;9.63;3.33;;;31.00;46.80;;;;;;5008649;28;20034;-78
2022/06/30 11:09:44;;;;;;;9.43;2.38;;;31.10;49.40;;;;;;5001152;28;20030;-77
2022/06/30 11:12:14;;;;;;;5.97;2.10;;;31.00;45.40;;;;;;4990801;28;20086;-77
2022/06/30 11:14:53;;;;;;;8.68;3.00;;;31.00;46.50;;;;;;5001814;28;20018;-77
2022/06/30 11:17:21;;;;;;;7.60;3.65;;;31.10;46.60;;;;;;4991081;28;20030;-78
2022/06/30 11:20:06;;;;;;;8.30;2.10;;;31.00;48.00;;;;;;5000271;28;20037;-77
2022/06/30 11:22:33;;;;;;;7.25;4.13;;;31.10;50.40;;;;;;5023669;28;20021;-78
2022/06/30 11:25:07;;;;;;;5.15;2.00;;;31.20;48.90;;;;;;5005036;28;20609;-77
2022/06/30 11:27:36;;;;;;;11.00;4.13;;;31.30;51.60;;;;;;5016277;28;20037;-77
2022/06/30 11:30:09;;;;;;;9.32;4.18;;;31.30;48.80;;;;;;4996120;28;20025;-78
2022/06/30 11:32:35;;;;;;;8.15;2.65;;;31.40;48.80;;;;;;5011187;28;20083;-77
2022/06/30 11:35:01;;;;;;;8.98;2.70;;;31.50;47.90;;;;;;4995381;28;20118;-77
2022/06/30 11:37:30;;;;;;;8.65;3.03;;;31.70;45.70;;;;;;5009785;28;20022;-76
2022/06/30 11:40:11;;;;;;;10.65;2.88;;;31.70;44.90;;;;;;4993354;28;20433;-78
2022/06/30 11:42:39;;;;;;;8.75;2.42;;;31.80;46.80;;;;;;4991352;28;20081;-77
2022/06/30 11:45:22;;;;;;;5.78;1.67;;;31.80;44.40;;;;;;5002001;28;20117;-77
2022/06/30 11:47:55;;;;;;;9.23;3.22;;;31.80;47.10;;;;;;5013993;28;20049;-78
2022/06/30 11:50:23;;;;;;;9.35;2.58;;;31.80;44.50;;;;;;5001189;28;20030;-78
2022/06/30 11:52:51;;;;;;;8.77;3.00;;;31.70;45.50;;;;;;4993862;28;20026;-77
2022/06/30 11:55:17;;;;;;;12.65;3.20;;;31.60;44.40;;;;;;5000424;28;20503;-76
2022/06/30 11:57:45;;;;;;;6.75;2.20;;;31.60;44.70;;;;;;5013419;28;20109;-77
2022/06/30 12:00:20;;;;;;;5.28;1.95;;;31.50;46.50;;;;;;5012225;28;20033;-78
2022/06/30 12:02:46;;;;;;;9.23;2.97;;;31.60;48.90;;;;;;5021807;28;20152;-79
2022/06/30 12:05:15;;;;;;;9.57;3.67;;;31.70;46.20;;;;;;5012163;28;20038;-78
2022/06/30 12:07:43;;;;;;;6.63;1.75;;;31.90;45.80;;;;;;5011795;28;20038;-78
2022/06/30 12:10:12;;;;;;;7.00;3.40;;;32.00;46.20;;;;;;5008313;28;20388;-78
2022/06/30 12:12:38;;;;;;;4.40;1.85;;;32.00;45.40;;;;;;5012917;28;20026;-77
2022/06/30 12:15:12;;;;;;;4.32;1.65;;;32.10;47.10;;;;;;5013181;28;20044;-78
2022/06/30 12:17:40;;;;;;;6.38;2.35;;;32.20;46.60;;;;;;5007937;28;20026;-77
2022/06/30 12:20:11;;;;;;;9.05;2.42;;;32.20;44.60;;;;;;5009886;28;20116;-77
2022/06/30 12:22:45;;;;;;;7.20;2.15;;;32.30;43.60;;;;;;4993897;28;20389;-78
2022/06/30 12:25:12;;;;;;;8.30;2.00;;;32.30;43.70;;;;;;4995581;28;20057;-79
2022/06/30 12:27:41;;;;;;;7.07;2.80;;;32.40;44.60;;;;;;5003348;28;20101;-78
2022/06/30 12:30:18;;;;;;;4.03;1.23;;;32.60;44.10;;;;;;5009060;28;20054;-78
2022/06/30 12:32:57;;;;;;;8.68;1.90;;;32.50;45.90;;;;;;5012834;28;20125;-77
2022/06/30 12:35:25;;;;;;;7.18;2.00;;;32.40;46.30;;;;;;5013248;28;20063;-78
2022/06/30 12:37:53;;;;;;;6.35;2.42;;;32.60;46.30;;;;;;4996418;28;20034;-77
2022/06/30 12:40:21;;;;;;;4.60;1.63;;;32.80;44.80;;;;;;4994271;28;20485;-77
2022/06/30 12:42:53;;;;;;;9.57;2.97;;;33.00;43.70;;;;;;5006467;28;20034;-77
2022/06/30 12:45:45;;;;;;;5.10;2.17;;;32.90;42.50;;;;;;4992785;28;20113;-78
2022/06/30 12:48:15;;;;;;;5.80;1.83;;;32.70;42.40;;;;;;5011483;28;20034;-78
2022/06/30 12:50:43;;;;;;;3.38;1.38;;;32.70;43.20;;;;;;5012618;28;20030;-77
2022/06/30 12:53:34;;;;;;;3.80;1.35;;;32.90;44.10;;;;;;5004917;28;20030;-78
2022/06/30 12:56:20;;;;;;;8.43;2.10;;;33.00;46.50;;;;;;4991597;28;20026;-77